createdAt,value
2022-10-24T00:00:32.498Z,4.80
2022-10-24T00:01:32.448Z,6.90
2022-10-24T00:02:32.526Z,8.70
2022-10-24T00:03:32.412Z,9.60
2022-10-24T00:04:32.405Z,9.30
2022-10-24T00:05:32.387Z,6.70
2022-10-24T00:06:32.376Z,7.80
2022-10-24T00:07:32.379Z,8.00
2022-10-24T00:08:32.363Z,9.90
2022-10-24T00:09:32.354Z,6.50
2022-10-24T00:10:32.332Z,12.00
2022-10-24T00:11:32.305Z,10.10
2022-10-24T00:12:32.307Z,10.40
2022-10-24T00:13:32.276Z,6.80
2022-10-24T00:14:32.289Z,7.50
2022-10-24T00:15:32.250Z,9.10
2022-10-24T00:16:32.245Z,7.60
2022-10-24T00:17:32.220Z,10.60
2022-10-24T00:18:32.224Z,10.20
2022-10-24T00:19:32.220Z,9.90
2022-10-24T00:20:32.242Z,10.10
2022-10-24T00:21:32.187Z,11.30
2022-10-24T00:22:32.164Z,8.50
2022-10-24T00:23:32.151Z,10.40
2022-10-24T00:24:32.162Z,9.40
2022-10-24T00:25:32.123Z,10.80
2022-10-24T00:26:32.124Z,7.70
2022-10-24T00:27:32.115Z,11.10
2022-10-24T00:28:32.096Z,6.50
2022-10-24T00:29:32.072Z,8.30
2022-10-24T00:30:32.052Z,11.60
2022-10-24T00:31:32.075Z,11.60
2022-10-24T00:32:32.031Z,13.10
2022-10-24T00:33:32.039Z,10.90
2022-10-24T00:34:31.996Z,13.00
2022-10-24T00:35:31.977Z,14.70
2022-10-24T00:36:32.016Z,15.90
2022-10-24T00:37:31.972Z,7.70
2022-10-24T00:38:31.961Z,12.10
2022-10-24T00:39:31.935Z,13.60
2022-10-24T00:40:31.923Z,14.30
2022-10-24T00:41:31.941Z,9.90
2022-10-24T00:42:31.909Z,8.30
2022-10-24T00:43:31.923Z,12.00
2022-10-24T00:44:31.877Z,10.80
2022-10-24T00:45:31.894Z,14.50
2022-10-24T00:46:31.852Z,13.00
2022-10-24T00:47:31.840Z,13.70
2022-10-24T00:48:31.840Z,8.60
2022-10-24T00:49:31.813Z,12.40
2022-10-24T00:50:31.780Z,9.80
2022-10-24T00:51:31.785Z,8.80
2022-10-24T00:52:31.756Z,8.40
2022-10-24T00:53:31.740Z,8.30
2022-10-24T00:54:31.765Z,15.30
2022-10-24T00:55:31.720Z,12.70
2022-10-24T00:56:31.708Z,12.30
2022-10-24T00:57:31.692Z,11.80
2022-10-24T00:58:31.676Z,11.20
2022-10-24T00:59:31.680Z,15.20
2022-10-24T01:00:31.744Z,13.10
2022-10-24T01:01:31.661Z,9.90
2022-10-24T01:02:31.627Z,14.30
2022-10-24T01:03:31.602Z,13.20
2022-10-24T01:04:31.612Z,11.80
2022-10-24T01:05:31.587Z,15.40
2022-10-24T01:06:31.565Z,15.10
2022-10-24T01:07:31.548Z,12.30
2022-10-24T01:08:31.560Z,10.80
2022-10-24T01:09:31.534Z,11.50
2022-10-24T01:10:31.594Z,11.60
2022-10-24T01:11:31.510Z,16.10
2022-10-24T01:12:31.512Z,14.00
2022-10-24T01:13:31.472Z,13.60
2022-10-24T01:14:31.469Z,12.90
2022-10-24T01:15:31.457Z,9.00
2022-10-24T01:16:31.453Z,8.90
2022-10-24T01:17:31.444Z,13.30
2022-10-24T01:18:31.434Z,11.10
2022-10-24T01:19:31.415Z,10.20
2022-10-24T01:20:31.399Z,9.30
2022-10-24T01:21:31.372Z,7.30
2022-10-24T01:22:31.352Z,11.30
2022-10-24T01:23:31.347Z,11.10
2022-10-24T01:24:31.374Z,8.10
2022-10-24T01:25:31.323Z,9.50
2022-10-24T01:26:31.311Z,11.30
2022-10-24T01:27:31.297Z,12.60
2022-10-24T01:28:31.284Z,12.40
2022-10-24T01:29:31.254Z,11.60
2022-10-24T01:30:31.281Z,11.20
2022-10-24T01:31:31.251Z,9.80
2022-10-24T01:32:31.215Z,9.10
2022-10-24T01:33:31.212Z,10.40
2022-10-24T01:34:31.193Z,9.30
2022-10-24T01:36:31.168Z,12.30
2022-10-24T01:37:31.158Z,11.40
2022-10-24T01:38:31.141Z,7.60
2022-10-24T01:39:31.134Z,11.50
2022-10-24T01:40:31.134Z,11.20
2022-10-24T01:41:31.122Z,7.80
2022-10-24T01:42:31.086Z,7.00
2022-10-24T01:43:31.096Z,5.80
2022-10-24T01:44:31.073Z,6.40
2022-10-24T01:45:31.061Z,6.90
2022-10-24T01:46:31.045Z,5.70
2022-10-24T01:47:31.025Z,13.00
2022-10-24T01:48:31.000Z,7.60
2022-10-24T01:49:30.993Z,6.00
2022-10-24T01:50:30.991Z,10.70
2022-10-24T01:51:30.995Z,5.90
2022-10-24T01:52:30.978Z,7.80
2022-10-24T01:53:30.934Z,10.50
2022-10-24T01:54:30.915Z,8.90
2022-10-24T01:55:30.909Z,9.90
2022-10-24T01:56:30.913Z,5.00
2022-10-24T01:57:30.910Z,9.40
2022-10-24T01:58:30.871Z,6.90
2022-10-24T01:59:30.858Z,8.20
2022-10-24T02:00:30.977Z,8.10
2022-10-24T02:01:30.914Z,6.00
2022-10-24T02:02:30.836Z,6.30
2022-10-24T02:03:30.833Z,8.40
2022-10-24T02:04:30.805Z,6.70
2022-10-24T02:05:30.774Z,10.10
2022-10-24T02:06:30.762Z,9.90
2022-10-24T02:07:30.780Z,9.10
2022-10-24T02:08:30.758Z,5.90
2022-10-24T02:09:30.723Z,8.00
2022-10-24T02:10:30.698Z,7.80
2022-10-24T02:11:30.706Z,7.90
2022-10-24T02:12:30.717Z,9.70
2022-10-24T02:13:30.895Z,7.80
2022-10-24T02:14:30.650Z,8.20
2022-10-24T02:15:30.637Z,8.80
2022-10-24T02:16:30.634Z,5.50
2022-10-24T02:17:30.638Z,5.60
2022-10-24T02:18:30.621Z,7.60
2022-10-24T02:19:30.613Z,8.80
2022-10-24T02:20:30.562Z,6.70
2022-10-24T02:21:30.584Z,13.10
2022-10-24T02:22:30.576Z,10.10
2022-10-24T02:23:30.535Z,8.20
2022-10-24T02:24:30.527Z,7.60
2022-10-24T02:25:30.512Z,13.80
2022-10-24T02:26:30.508Z,8.40
2022-10-24T02:27:30.491Z,9.50
2022-10-24T02:28:30.461Z,10.10
2022-10-24T02:29:30.462Z,7.60
2022-10-24T02:30:30.443Z,6.90
2022-10-24T02:31:30.445Z,10.90
2022-10-24T02:32:30.410Z,8.40
2022-10-24T02:33:30.399Z,7.60
2022-10-24T02:34:30.379Z,5.80
2022-10-24T02:35:30.376Z,5.90
2022-10-24T02:36:30.377Z,6.10
2022-10-24T02:37:30.353Z,6.70
2022-10-24T02:38:30.332Z,8.40
2022-10-24T02:39:30.325Z,10.10
2022-10-24T02:40:30.306Z,8.60
2022-10-24T02:41:30.327Z,6.50
2022-10-24T02:43:30.274Z,7.70
2022-10-24T02:44:30.247Z,7.90
2022-10-24T02:45:30.253Z,8.20
2022-10-24T02:46:30.227Z,9.50
2022-10-24T02:47:30.247Z,8.70
2022-10-24T02:48:30.211Z,12.00
2022-10-24T02:49:30.188Z,10.80
2022-10-24T02:50:30.160Z,8.40
2022-10-24T02:51:30.167Z,9.90
2022-10-24T02:52:30.706Z,10.80
2022-10-24T02:53:30.130Z,9.60
2022-10-24T02:54:30.127Z,9.00
2022-10-24T02:55:30.122Z,7.30
2022-10-24T02:56:30.092Z,10.30
2022-10-24T02:57:30.080Z,10.10
2022-10-24T02:58:30.092Z,7.90
2022-10-24T02:59:30.049Z,10.30
2022-10-24T03:00:30.148Z,8.70
2022-10-24T03:01:30.149Z,8.40
2022-10-24T03:02:30.008Z,6.60
2022-10-24T03:03:30.025Z,8.50
2022-10-24T03:04:29.999Z,9.80
2022-10-24T03:05:29.973Z,14.60
2022-10-24T03:06:29.949Z,9.40
2022-10-24T03:08:29.960Z,10.30
2022-10-24T03:09:29.912Z,13.90
2022-10-24T03:10:29.900Z,8.10
2022-10-24T03:11:29.888Z,12.30
2022-10-24T03:12:29.895Z,10.70
2022-10-24T03:13:29.865Z,11.60
2022-10-24T03:14:29.850Z,10.80
2022-10-24T03:15:29.841Z,7.20
2022-10-24T03:16:29.849Z,11.10
2022-10-24T03:17:29.806Z,8.50
2022-10-24T03:18:29.797Z,11.40
2022-10-24T03:19:29.779Z,8.80
2022-10-24T03:20:29.782Z,9.90
2022-10-24T03:21:29.784Z,12.00
2022-10-24T03:22:30.915Z,11.10
2022-10-24T03:23:29.744Z,10.30
2022-10-24T03:24:43.481Z,10.20
2022-10-24T03:25:29.717Z,12.70
2022-10-24T03:26:29.694Z,12.10
2022-10-24T03:27:29.699Z,11.60
2022-10-24T03:28:29.670Z,11.50
2022-10-24T03:29:29.663Z,11.30
2022-10-24T03:30:29.631Z,7.00
2022-10-24T03:31:29.634Z,9.30
2022-10-24T03:32:29.629Z,9.50
2022-10-24T03:33:29.593Z,10.30
2022-10-24T03:34:29.591Z,8.40
2022-10-24T03:35:29.565Z,10.80
2022-10-24T03:36:29.545Z,12.80
2022-10-24T03:37:29.567Z,8.40
2022-10-24T03:38:29.526Z,8.80
2022-10-24T03:39:29.511Z,9.40
2022-10-24T03:40:29.495Z,9.10
2022-10-24T03:41:29.514Z,6.20
2022-10-24T03:42:29.481Z,10.40
2022-10-24T03:43:29.477Z,9.60
2022-10-24T03:44:29.447Z,10.80
2022-10-24T03:45:29.422Z,6.90
2022-10-24T03:46:29.453Z,9.70
2022-10-24T03:47:29.405Z,9.20
2022-10-24T03:48:29.419Z,9.60
2022-10-24T03:49:29.405Z,11.20
2022-10-24T03:50:29.362Z,10.50
2022-10-24T03:51:29.356Z,8.60
2022-10-24T03:52:29.338Z,9.00
2022-10-24T03:53:29.328Z,8.50
2022-10-24T03:54:29.330Z,7.10
2022-10-24T03:55:29.301Z,10.70
2022-10-24T03:56:29.289Z,8.00
2022-10-24T03:57:29.271Z,9.50
2022-10-24T03:58:29.284Z,9.20
2022-10-24T03:59:29.263Z,9.00
2022-10-24T04:00:29.258Z,9.70
2022-10-24T04:01:29.357Z,8.30
2022-10-24T04:02:29.201Z,11.20
2022-10-24T04:03:29.196Z,7.10
2022-10-24T04:04:29.172Z,7.00
2022-10-24T04:05:29.243Z,8.60
2022-10-24T04:06:31.346Z,9.20
2022-10-24T04:07:29.153Z,8.20
2022-10-24T04:08:29.127Z,12.80
2022-10-24T04:09:29.110Z,8.60
2022-10-24T04:10:29.091Z,11.50
2022-10-24T04:11:29.089Z,7.60
2022-10-24T04:12:29.089Z,10.80
2022-10-24T04:13:29.061Z,8.30
2022-10-24T04:14:29.064Z,11.70
2022-10-24T04:15:29.030Z,8.20
2022-10-24T04:16:29.024Z,9.60
2022-10-24T04:17:29.031Z,9.60
2022-10-24T04:18:29.033Z,6.10
2022-10-24T04:19:28.978Z,9.90
2022-10-24T04:20:28.968Z,7.30
2022-10-24T04:21:28.982Z,9.20
2022-10-24T04:22:28.972Z,10.30
2022-10-24T04:23:28.936Z,7.40
2022-10-24T04:24:28.926Z,8.20
2022-10-24T04:25:28.888Z,7.90
2022-10-24T04:26:28.882Z,9.90
2022-10-24T04:27:28.872Z,9.30
2022-10-24T04:28:28.876Z,7.80
2022-10-24T04:29:28.869Z,12.10
2022-10-24T04:30:28.826Z,12.70
2022-10-24T04:31:28.822Z,9.30
2022-10-24T04:32:28.797Z,13.80
2022-10-24T04:33:28.824Z,8.40
2022-10-24T04:34:28.782Z,13.70
2022-10-24T04:35:28.786Z,14.60
2022-10-24T04:36:28.767Z,15.00
2022-10-24T04:37:28.726Z,9.60
2022-10-24T04:38:33.233Z,7.20
2022-10-24T04:39:28.714Z,9.60
2022-10-24T04:40:28.720Z,11.90
2022-10-24T04:41:28.690Z,10.30
2022-10-24T04:42:28.663Z,14.00
2022-10-24T04:43:28.665Z,10.40
2022-10-24T04:44:28.667Z,15.00
2022-10-24T04:45:28.660Z,10.60
2022-10-24T04:46:28.609Z,11.40
2022-10-24T04:47:28.595Z,10.90
2022-10-24T04:48:28.613Z,10.40
2022-10-24T04:49:28.600Z,9.20
2022-10-24T04:50:28.565Z,9.40
2022-10-24T04:51:28.549Z,7.80
2022-10-24T04:52:28.542Z,12.50
2022-10-24T04:53:28.544Z,9.00
2022-10-24T04:54:28.510Z,13.10
2022-10-24T04:55:28.527Z,10.90
2022-10-24T04:56:28.485Z,12.40
2022-10-24T04:57:28.472Z,14.00
2022-10-24T04:58:28.502Z,12.20
2022-10-24T04:59:28.453Z,12.10
2022-10-24T05:00:28.444Z,17.50
2022-10-24T05:01:28.503Z,13.40
2022-10-24T05:02:28.543Z,11.50
2022-10-24T05:03:28.451Z,11.80
2022-10-24T05:04:28.369Z,9.20
2022-10-24T05:05:28.371Z,12.30
2022-10-24T05:06:28.399Z,12.70
2022-10-24T05:07:28.368Z,17.20
2022-10-24T05:08:28.313Z,16.30
2022-10-24T05:09:28.321Z,14.70
2022-10-24T05:10:28.292Z,9.70
2022-10-24T05:11:28.299Z,15.80
2022-10-24T05:12:28.289Z,15.20
2022-10-24T05:13:31.694Z,16.40
2022-10-24T05:14:28.232Z,18.40
2022-10-24T05:15:28.240Z,12.10
2022-10-24T05:16:28.220Z,12.50
2022-10-24T05:17:28.235Z,12.40
2022-10-24T05:18:28.198Z,21.30
2022-10-24T05:19:28.174Z,17.10
2022-10-24T05:20:28.240Z,16.30
2022-10-24T05:21:28.208Z,13.70
2022-10-24T05:22:28.134Z,15.30
2022-10-24T05:23:28.124Z,15.90
2022-10-24T05:24:28.099Z,12.10
2022-10-24T05:25:28.090Z,14.00
2022-10-24T05:26:28.103Z,14.50
2022-10-24T05:27:28.067Z,14.90
2022-10-24T05:28:28.064Z,10.90
2022-10-24T05:29:28.042Z,14.70
2022-10-24T05:30:28.014Z,11.40
2022-10-24T05:31:28.085Z,14.30
2022-10-24T05:32:27.999Z,13.90
2022-10-24T05:33:28.009Z,15.50
2022-10-24T05:34:27.988Z,13.90
2022-10-24T05:35:27.950Z,16.00
2022-10-24T05:36:27.946Z,12.70
2022-10-24T05:37:27.956Z,13.90
2022-10-24T05:38:27.925Z,18.80
2022-10-24T05:39:27.908Z,16.60
2022-10-24T05:40:27.889Z,10.70
2022-10-24T05:41:27.883Z,12.90
2022-10-24T05:42:27.897Z,13.10
2022-10-24T05:43:27.844Z,11.70
2022-10-24T05:44:27.873Z,16.30
2022-10-24T05:45:27.825Z,13.40
2022-10-24T05:46:27.813Z,13.90
2022-10-24T05:47:29.257Z,14.80
2022-10-24T05:48:27.826Z,12.50
2022-10-24T05:49:27.771Z,14.40
2022-10-24T05:50:27.762Z,12.40
2022-10-24T05:51:27.737Z,12.70
2022-10-24T05:52:27.739Z,13.40
2022-10-24T05:53:27.773Z,14.70
2022-10-24T05:54:33.422Z,13.30
2022-10-24T05:55:27.691Z,10.90
2022-10-24T05:56:27.683Z,13.30
2022-10-24T05:57:27.664Z,14.40
2022-10-24T05:58:27.681Z,13.10
2022-10-24T05:59:27.628Z,10.80
2022-10-24T06:00:27.627Z,11.00
2022-10-24T06:01:27.695Z,14.70
2022-10-24T06:02:27.837Z,11.60
2022-10-24T06:03:27.614Z,9.90
2022-10-24T06:04:27.574Z,12.70
2022-10-24T06:05:27.579Z,9.60
2022-10-24T06:06:27.547Z,16.60
2022-10-24T06:07:27.543Z,14.20
2022-10-24T06:08:27.549Z,15.10
2022-10-24T06:09:27.686Z,12.00
2022-10-24T06:10:27.538Z,11.40
2022-10-24T06:11:27.477Z,8.50
2022-10-24T06:12:27.479Z,9.60
2022-10-24T06:13:27.447Z,11.20
2022-10-24T06:14:27.454Z,9.20
2022-10-24T06:15:27.457Z,11.20
2022-10-24T06:16:27.415Z,13.90
2022-10-24T06:17:27.400Z,11.30
2022-10-24T06:18:27.397Z,8.70
2022-10-24T06:19:27.384Z,11.70
2022-10-24T06:20:27.537Z,9.00
2022-10-24T06:21:27.361Z,11.20
2022-10-24T06:22:27.339Z,8.10
2022-10-24T06:23:27.327Z,10.10
2022-10-24T06:24:27.328Z,11.30
2022-10-24T06:25:27.290Z,8.50
2022-10-24T06:26:27.310Z,6.90
2022-10-24T06:27:27.262Z,8.40
2022-10-24T06:28:27.278Z,10.80
2022-10-24T06:29:27.236Z,10.40
2022-10-24T06:30:27.305Z,9.20
2022-10-24T06:31:27.212Z,12.30
2022-10-24T06:32:27.237Z,7.80
2022-10-24T06:33:27.175Z,7.70
2022-10-24T06:34:27.240Z,6.70
2022-10-24T06:35:27.183Z,8.40
2022-10-24T06:36:29.400Z,11.40
2022-10-24T06:37:27.139Z,11.20
2022-10-24T06:38:27.154Z,7.90
2022-10-24T06:39:27.147Z,11.30
2022-10-24T06:40:27.144Z,12.50
2022-10-24T06:41:27.082Z,7.60
2022-10-24T06:42:27.070Z,9.30
2022-10-24T06:43:27.060Z,6.20
2022-10-24T06:44:27.129Z,7.50
2022-10-24T06:45:27.033Z,4.60
2022-10-24T06:46:27.052Z,8.90
2022-10-24T06:47:27.002Z,8.60
2022-10-24T06:48:26.984Z,8.50
2022-10-24T06:49:27.012Z,8.30
2022-10-24T06:50:27.006Z,9.50
2022-10-24T06:51:26.956Z,7.10
2022-10-24T06:52:26.950Z,12.60
2022-10-24T06:53:26.913Z,8.80
2022-10-24T06:54:30.103Z,6.40
2022-10-24T06:55:26.913Z,8.40
2022-10-24T06:56:26.882Z,8.50
2022-10-24T06:57:26.867Z,7.00
2022-10-24T06:58:26.864Z,5.70
2022-10-24T06:59:26.840Z,6.20
2022-10-24T07:01:26.964Z,6.50
2022-10-24T07:02:26.973Z,4.40
2022-10-24T07:03:26.799Z,7.80
2022-10-24T07:04:26.779Z,6.10
2022-10-24T07:05:26.864Z,7.20
2022-10-24T07:06:26.795Z,7.50
2022-10-24T07:07:26.758Z,8.10
2022-10-24T07:08:26.729Z,6.90
2022-10-24T07:09:26.707Z,6.60
2022-10-24T07:10:26.741Z,7.60
2022-10-24T07:11:26.703Z,8.40
2022-10-24T07:12:26.698Z,9.20
2022-10-24T07:13:26.653Z,7.60
2022-10-24T07:14:26.645Z,8.10
2022-10-24T07:15:26.624Z,7.80
2022-10-24T07:16:26.642Z,8.00
2022-10-24T07:17:26.613Z,6.80
2022-10-24T07:18:26.609Z,5.20
2022-10-24T07:19:26.593Z,5.20
2022-10-24T07:20:26.725Z,7.60
2022-10-24T07:21:26.550Z,7.40
2022-10-24T07:22:28.295Z,6.60
2022-10-24T07:23:26.552Z,6.50
2022-10-24T07:24:26.517Z,6.80
2022-10-24T07:25:26.518Z,6.60
2022-10-24T07:26:26.495Z,10.80
2022-10-24T07:27:26.479Z,5.60
2022-10-24T07:28:26.491Z,10.00
2022-10-24T07:29:26.453Z,8.00
2022-10-24T07:30:26.432Z,5.50
2022-10-24T07:31:26.421Z,5.80
2022-10-24T07:32:26.421Z,7.00
2022-10-24T07:33:26.424Z,5.50
2022-10-24T07:34:26.392Z,9.40
2022-10-24T07:35:26.362Z,7.50
2022-10-24T07:36:26.343Z,8.40
2022-10-24T07:38:26.361Z,6.30
2022-10-24T07:39:26.371Z,5.60
2022-10-24T07:40:26.335Z,8.40
2022-10-24T07:41:26.281Z,8.30
2022-10-24T07:42:26.275Z,4.70
2022-10-24T07:43:26.264Z,8.60
2022-10-24T07:44:26.264Z,4.20
2022-10-24T07:45:26.245Z,6.30
2022-10-24T07:46:26.227Z,6.30
2022-10-24T07:47:26.205Z,7.60
2022-10-24T07:48:26.211Z,8.20
2022-10-24T07:49:29.067Z,8.20
2022-10-24T07:50:26.183Z,9.00
2022-10-24T07:51:26.193Z,5.40
2022-10-24T07:52:26.157Z,4.80
2022-10-24T07:53:26.143Z,6.80
2022-10-24T07:54:26.156Z,7.40
2022-10-24T07:55:26.109Z,6.80
2022-10-24T07:56:26.129Z,5.30
2022-10-24T07:57:26.075Z,7.40
2022-10-24T07:58:26.118Z,6.40
2022-10-24T07:59:41.227Z,9.80
2022-10-24T08:00:26.039Z,6.80
2022-10-24T08:01:26.114Z,8.30
2022-10-24T08:02:26.041Z,13.80
2022-10-24T08:03:26.382Z,11.10
2022-10-24T08:04:26.007Z,10.40
2022-10-24T08:05:25.964Z,9.40
2022-10-24T08:06:25.956Z,13.40
2022-10-24T08:07:25.980Z,36.70
2022-10-24T08:08:35.592Z,97.00
2022-10-24T08:09:25.920Z,72.00
2022-10-24T08:10:25.918Z,52.10
2022-10-24T08:11:25.887Z,17.60
2022-10-24T08:12:25.907Z,7.30
2022-10-24T08:13:25.862Z,15.80
2022-10-24T08:14:25.862Z,11.70
2022-10-24T08:15:25.918Z,17.00
2022-10-24T08:16:25.835Z,15.40
2022-10-24T08:17:25.843Z,24.00
2022-10-24T08:18:28.351Z,14.80
2022-10-24T08:20:25.798Z,12.00
2022-10-24T08:21:25.739Z,14.50
2022-10-24T08:22:25.732Z,16.80
2022-10-24T08:23:25.766Z,9.40
2022-10-24T08:24:25.706Z,21.80
2022-10-24T08:25:25.711Z,25.50
2022-10-24T08:26:25.710Z,25.60
2022-10-24T08:27:25.674Z,16.50
2022-10-24T08:28:25.679Z,23.80
2022-10-24T08:29:25.679Z,23.40
2022-10-24T08:30:25.634Z,22.20
2022-10-24T08:31:25.612Z,18.50
2022-10-24T08:32:25.611Z,20.10
2022-10-24T08:33:25.612Z,20.30
2022-10-24T08:34:25.611Z,15.20
2022-10-24T08:35:25.576Z,13.80
2022-10-24T08:36:25.547Z,16.70
2022-10-24T08:37:25.564Z,8.90
2022-10-24T08:38:25.552Z,12.20
2022-10-24T08:39:25.508Z,14.00
2022-10-24T08:40:25.545Z,11.40
2022-10-24T08:41:25.490Z,7.40
2022-10-24T08:42:25.514Z,9.10
2022-10-24T08:43:25.455Z,11.40
2022-10-24T08:44:25.457Z,12.50
2022-10-24T08:45:25.453Z,9.00
2022-10-24T08:46:25.421Z,10.40
2022-10-24T08:47:25.464Z,11.90
2022-10-24T08:48:25.412Z,11.60
2022-10-24T08:49:25.377Z,10.60
2022-10-24T08:50:25.407Z,12.30
2022-10-24T08:51:25.354Z,9.80
2022-10-24T08:52:25.342Z,6.90
2022-10-24T08:53:25.371Z,10.60
2022-10-24T08:54:25.314Z,11.90
2022-10-24T08:55:43.975Z,9.60
2022-10-24T08:56:25.360Z,8.30
2022-10-24T08:57:25.333Z,6.50
2022-10-24T08:58:25.273Z,8.00
2022-10-24T08:59:25.254Z,8.30
2022-10-24T09:00:25.265Z,8.70
2022-10-24T09:01:25.349Z,7.40
2022-10-24T09:02:25.329Z,9.00
2022-10-24T09:03:31.540Z,7.30
2022-10-24T09:04:25.210Z,9.70
2022-10-24T09:05:25.161Z,10.20
2022-10-24T09:06:25.145Z,10.10
2022-10-24T09:08:25.180Z,15.30
2022-10-24T09:09:25.123Z,10.30
2022-10-24T09:10:25.120Z,9.20
2022-10-24T09:11:25.083Z,8.80
2022-10-24T09:12:25.083Z,9.70
2022-10-24T09:13:25.134Z,11.20
2022-10-24T09:14:25.061Z,8.50
2022-10-24T09:15:25.019Z,8.00
2022-10-24T09:16:25.034Z,9.30
2022-10-24T09:17:25.042Z,8.80
2022-10-24T09:18:25.000Z,6.70
2022-10-24T09:19:24.980Z,8.80
2022-10-24T09:20:24.962Z,8.30
2022-10-24T09:21:24.961Z,11.90
2022-10-24T09:22:24.955Z,11.20
2022-10-24T09:23:24.935Z,7.30
2022-10-24T09:24:24.918Z,7.10
2022-10-24T09:25:24.898Z,9.30
2022-10-24T09:26:24.895Z,10.00
2022-10-24T09:27:24.922Z,7.30
2022-10-24T09:28:24.862Z,10.80
2022-10-24T09:29:24.856Z,7.50
2022-10-24T09:30:28.591Z,13.10
2022-10-24T09:31:24.847Z,10.70
2022-10-24T09:32:24.809Z,5.50
2022-10-24T09:33:24.814Z,7.80
2022-10-24T09:34:24.798Z,7.80
2022-10-24T09:35:24.762Z,12.20
2022-10-24T09:36:24.758Z,8.20
2022-10-24T09:37:24.767Z,10.30
2022-10-24T09:38:24.731Z,12.20
2022-10-24T09:39:24.711Z,9.80
2022-10-24T09:40:24.703Z,9.40
2022-10-24T09:41:24.748Z,12.50
2022-10-24T09:42:24.699Z,11.60
2022-10-24T09:43:24.668Z,10.30
2022-10-24T09:44:24.775Z,7.90
2022-10-24T09:45:24.625Z,10.60
2022-10-24T09:46:24.648Z,8.20
2022-10-24T09:47:24.609Z,10.40
2022-10-24T09:48:27.631Z,11.90
2022-10-24T09:49:24.602Z,9.20
2022-10-24T09:50:24.560Z,11.80
2022-10-24T09:51:24.547Z,12.30
2022-10-24T09:52:24.528Z,9.50
2022-10-24T09:53:24.522Z,9.30
2022-10-24T09:54:24.551Z,9.20
2022-10-24T09:55:24.887Z,10.80
2022-10-24T09:56:24.492Z,8.40
2022-10-24T09:57:26.813Z,8.30
2022-10-24T09:58:24.482Z,10.40
2022-10-24T09:59:24.471Z,9.90
2022-10-24T10:00:24.432Z,11.10
2022-10-24T10:01:24.480Z,8.30
2022-10-24T10:02:24.733Z,8.60
2022-10-24T10:03:24.504Z,11.30
2022-10-24T10:04:24.415Z,10.00
2022-10-24T10:05:24.402Z,9.50
2022-10-24T10:06:24.363Z,9.40
2022-10-24T10:07:24.336Z,10.70
2022-10-24T10:08:24.320Z,9.40
2022-10-24T10:09:24.334Z,10.70
2022-10-24T10:10:24.298Z,9.50
2022-10-24T10:11:24.277Z,8.90
2022-10-24T10:12:24.259Z,9.00
2022-10-24T10:13:24.254Z,10.60
2022-10-24T10:14:24.274Z,9.80
2022-10-24T10:15:24.270Z,10.50
2022-10-24T10:16:24.206Z,5.90
2022-10-24T10:17:24.204Z,9.50
2022-10-24T10:18:24.184Z,9.90
2022-10-24T10:19:24.175Z,9.60
2022-10-24T10:20:24.205Z,9.40
2022-10-24T10:21:24.176Z,11.00
2022-10-24T10:22:24.138Z,8.20
2022-10-24T10:23:24.127Z,11.00
2022-10-24T10:24:24.118Z,9.60
2022-10-24T10:25:24.088Z,10.50
2022-10-24T10:26:24.094Z,8.70
2022-10-24T10:27:24.067Z,9.30
2022-10-24T10:28:24.055Z,9.50
2022-10-24T10:29:24.032Z,9.30
2022-10-24T10:30:24.059Z,7.50
2022-10-24T10:31:24.018Z,10.30
2022-10-24T10:32:24.000Z,9.20
2022-10-24T10:33:24.044Z,8.10
2022-10-24T10:34:23.995Z,8.80
2022-10-24T10:35:23.965Z,9.00
2022-10-24T10:36:23.965Z,7.80
2022-10-24T10:37:23.940Z,10.20
2022-10-24T10:38:23.928Z,10.20
2022-10-24T10:39:23.890Z,9.40
2022-10-24T10:40:23.940Z,11.00
2022-10-24T10:41:23.901Z,8.30
2022-10-24T10:42:23.866Z,7.00
2022-10-24T10:43:23.846Z,10.10
2022-10-24T10:44:23.832Z,7.70
2022-10-24T10:45:23.813Z,11.40
2022-10-24T10:46:23.826Z,6.30
2022-10-24T10:47:26.692Z,9.70
2022-10-24T10:48:23.778Z,9.50
2022-10-24T10:49:23.784Z,10.80
2022-10-24T10:50:23.757Z,7.80
2022-10-24T10:51:23.728Z,10.30
2022-10-24T10:52:23.729Z,10.90
2022-10-24T10:53:23.717Z,10.00
2022-10-24T10:54:23.756Z,11.60
2022-10-24T10:55:23.667Z,9.90
2022-10-24T10:56:23.687Z,8.90
2022-10-24T10:57:26.543Z,7.70
2022-10-24T10:58:23.694Z,9.70
2022-10-24T10:59:25.842Z,9.00
2022-10-24T11:00:23.656Z,7.50
2022-10-24T11:01:23.728Z,10.20
2022-10-24T11:02:23.751Z,7.80
2022-10-24T11:03:23.582Z,9.00
2022-10-24T11:04:23.563Z,8.10
2022-10-24T11:05:23.552Z,10.60
2022-10-24T11:06:23.581Z,10.00
2022-10-24T11:07:23.516Z,10.00
2022-10-24T11:08:23.565Z,8.90
2022-10-24T11:09:23.495Z,7.80
2022-10-24T11:10:23.513Z,6.40
2022-10-24T11:11:23.537Z,7.70
2022-10-24T11:12:23.459Z,7.10
2022-10-24T11:13:23.460Z,11.50
2022-10-24T11:14:23.457Z,7.80
2022-10-24T11:15:23.503Z,9.30
2022-10-24T11:16:23.391Z,6.80
2022-10-24T11:17:23.423Z,11.20
2022-10-24T11:18:23.374Z,9.80
2022-10-24T11:19:23.356Z,8.30
2022-10-24T11:20:23.343Z,8.90
2022-10-24T11:21:23.337Z,9.50
2022-10-24T11:22:23.340Z,8.60
2022-10-24T11:23:23.305Z,8.70
2022-10-24T11:24:23.327Z,9.50
2022-10-24T11:25:23.307Z,10.20
2022-10-24T11:26:23.269Z,7.20
2022-10-24T11:27:23.313Z,10.60
2022-10-24T11:28:23.240Z,9.70
2022-10-24T11:29:23.290Z,7.70
2022-10-24T11:30:23.236Z,8.90
2022-10-24T11:31:23.205Z,7.10
2022-10-24T11:32:23.175Z,8.10
2022-10-24T11:33:23.205Z,8.90
2022-10-24T11:34:23.173Z,7.20
2022-10-24T11:35:23.143Z,6.60
2022-10-24T11:36:23.138Z,7.00
2022-10-24T11:37:23.168Z,11.80
2022-10-24T11:38:23.105Z,7.70
2022-10-24T11:39:23.081Z,6.10
2022-10-24T11:40:23.113Z,9.80
2022-10-24T11:41:23.088Z,8.80
2022-10-24T11:42:23.099Z,6.40
2022-10-24T11:43:23.027Z,8.40
2022-10-24T11:44:23.028Z,9.50
2022-10-24T11:45:23.027Z,11.70
2022-10-24T11:46:23.026Z,8.60
2022-10-24T11:47:22.997Z,6.70
2022-10-24T11:48:22.988Z,8.30
2022-10-24T11:49:22.968Z,10.80
2022-10-24T11:50:25.584Z,11.10
2022-10-24T11:51:22.919Z,9.30
2022-10-24T11:52:22.973Z,8.40
2022-10-24T11:53:22.908Z,9.00
2022-10-24T11:54:22.904Z,5.70
2022-10-24T11:55:22.881Z,7.00
2022-10-24T11:56:26.221Z,8.40
2022-10-24T11:57:22.866Z,8.90
2022-10-24T11:58:22.881Z,13.00
2022-10-24T11:59:22.817Z,9.90
2022-10-24T12:00:22.827Z,9.00
2022-10-24T12:01:22.827Z,10.10
2022-10-24T12:02:22.811Z,8.40
2022-10-24T12:03:22.768Z,8.30
2022-10-24T12:04:22.773Z,8.00
2022-10-24T12:05:22.784Z,9.70
2022-10-24T12:06:23.364Z,10.20
2022-10-24T12:07:22.722Z,8.00
2022-10-24T12:08:22.709Z,8.80
2022-10-24T12:09:22.721Z,7.40
2022-10-24T12:10:22.686Z,9.00
2022-10-24T12:11:22.681Z,9.70
2022-10-24T12:12:22.650Z,6.10
2022-10-24T12:13:22.636Z,9.00
2022-10-24T12:14:22.618Z,7.10
2022-10-24T12:15:22.647Z,5.90
2022-10-24T12:16:22.603Z,8.50
2022-10-24T12:17:22.592Z,10.20
2022-10-24T12:18:22.600Z,8.40
2022-10-24T12:19:22.561Z,8.40
2022-10-24T12:20:22.556Z,12.90
2022-10-24T12:21:25.913Z,9.80
2022-10-24T12:22:22.602Z,7.70
2022-10-24T12:23:22.512Z,10.70
2022-10-24T12:24:22.502Z,7.90
2022-10-24T12:25:22.509Z,9.20
2022-10-24T12:26:22.474Z,7.70
2022-10-24T12:27:22.487Z,10.00
2022-10-24T12:28:22.452Z,6.70
2022-10-24T12:29:22.426Z,8.70
2022-10-24T12:30:22.416Z,9.10
2022-10-24T12:31:25.553Z,10.60
2022-10-24T12:32:22.410Z,6.50
2022-10-24T12:33:22.367Z,4.90
2022-10-24T12:34:22.363Z,10.90
2022-10-24T12:35:30.370Z,8.80
2022-10-24T12:36:22.356Z,11.40
2022-10-24T12:37:22.317Z,10.20
2022-10-24T12:38:22.364Z,11.40
2022-10-24T12:39:22.389Z,6.70
2022-10-24T12:40:22.387Z,10.40
2022-10-24T12:41:22.267Z,9.60
2022-10-24T12:42:22.254Z,8.70
2022-10-24T12:43:22.242Z,7.30
2022-10-24T12:44:22.265Z,10.30
2022-10-24T12:45:22.201Z,10.30
2022-10-24T12:46:23.273Z,8.30
2022-10-24T12:47:22.185Z,10.50
2022-10-24T12:48:22.235Z,8.60
2022-10-24T12:49:24.393Z,9.10
2022-10-24T12:50:22.211Z,7.60
2022-10-24T12:51:22.154Z,8.50
2022-10-24T12:52:22.144Z,8.30
2022-10-24T12:53:22.120Z,9.40
2022-10-24T12:54:22.118Z,7.70
2022-10-24T12:55:22.078Z,9.50
2022-10-24T12:56:22.166Z,10.70
2022-10-24T12:57:22.095Z,6.80
2022-10-24T12:58:22.101Z,6.80
2022-10-24T12:59:22.058Z,8.80
2022-10-24T13:00:22.015Z,9.10
2022-10-24T13:01:22.131Z,10.90
2022-10-24T13:02:22.102Z,10.10
2022-10-24T13:03:21.976Z,7.40
2022-10-24T13:04:22.082Z,9.50
2022-10-24T13:05:21.968Z,6.30
2022-10-24T13:06:21.969Z,8.80
2022-10-24T13:07:21.933Z,10.20
2022-10-24T13:08:21.958Z,9.10
2022-10-24T13:09:21.902Z,8.30
2022-10-24T13:10:21.894Z,10.10
2022-10-24T13:11:21.863Z,11.00
2022-10-24T13:12:21.873Z,8.60
2022-10-24T13:13:21.838Z,7.00
2022-10-24T13:14:21.835Z,10.60